Airfield :
LOGIN :

Register | Disclaimer

   EN    FR    IT 

 










Legend :    VFR   Marginal VFR   IFR   Intensive IFR   Very Intensive IFR
Visi :
Ceiling :
>= 8 km
>= 3000ft
5 to 8 km
1000 to 3000 ft
1500m to 5 km
500 to 1000 ft
800 to 1500m
200 to 500 ft
< 800m
< 200 ft
Symbols :   Thunderstorms  Fog  Heavy snow  Heavy precipitations  Wind > 20 kt
SIGMETs :     Misc.  Thunderstorms  Icing  Turbulence  Mountain Waves  Volcanic Ashes






- Airport Elevation : 80 ft
- IATA code : LPL


EGGP - Liverpool John Lennon

CURRENT METAR :
  • 221420Z 21015KT 9999 VCSH FEW022 SCT036 BKN044 17/12 Q1009

EXPIRED METARs :
  • 221350Z 22011KT 9999 BKN030 BKN036 18/12 Q1009
  • 221320Z 20007KT 160V220 9999 SCT030 BKN032 19/13 Q1009
  • 221250Z 20009KT 9999 SCT026 BKN035 19/13 Q1010
  • 221220Z 19011KT 9999 BKN026 BKN031 19/12 Q1010

TAF TAF EGGP
Valid from the 22 at 12:00 until the 23 at 12:00 UTC


221057Z 2212/2312 20010KT 9999 SCT030
PROB40
TEMPO 2212/2215 7000 -RADZ BKN014
PROB30
TEMPO 2215/2217 7000 SHRA
PROB30
TEMPO 2303/2309 BKN014
BECMG 2305/2308 28010KT
PROB30
TEMPO 2309/2312 7000 SHRA
ATIS : +44 151 907 2000 (option 5 or ext 5150)
Met : +44 871 750 5150



MET'MAP, your aeronautical weather chart ! - Copyright ORBIFLY December 2007 - Disclaimer

ORBIFLY MET'MAP TEAM :

Programming & Development : Alexandra Zaïnal
Original concept : Baudouin d'Aumeries
Technical & hardware support : Manuel Goepfert
Assistance : Marc-Olivier Méhu

Contact : metmap@orbifly.com




SOURCES & CREDITS :

   NOAA